Time,TemperatureF,DewpointF,PressureIn,WindDirection,WindDirectionDegrees,WindSpeedMPH,WindSpeedGustMPH,Humidity,HourlyPrecipIn,Conditions,Clouds,dailyrainin,SoftwareType,DateUTC
2013-02-06 00:02:00,23.0,23.0,29.99,NNW,329,6.0,0.0,98,0.03,,,-99.99,,2013-02-06 05:02:00,
2013-02-06 00:12:00,23.0,23.0,29.99,NNW,329,6.0,0.0,98,0.03,,,-99.99,,2013-02-06 05:12:00,
2013-02-06 00:22:00,23.0,23.0,29.99,NW,322,0.0,0.0,99,0.03,,,-99.99,,2013-02-06 05:22:00,
2013-02-06 00:32:00,23.0,23.0,30.00,NW,322,0.0,0.0,99,0.03,,,-99.99,,2013-02-06 05:32:00,
2013-02-06 00:42:00,23.0,23.0,30.00,NW,322,0.0,0.0,99,0.03,,,-99.99,,2013-02-06 05:42:00,
2013-02-06 00:53:00,23.0,23.0,30.01,NW,322,0.0,0.0,100,0.03,,,-99.99,,2013-02-06 05:53:00,
2013-02-06 01:01:00,23.0,23.0,30.01,NW,322,0.0,0.0,100,0.03,,,-99.99,,2013-02-06 06:01:00,
2013-02-06 01:11:00,23.0,23.0,30.01,NW,322,0.0,0.0,100,0.03,,,-99.99,,2013-02-06 06:11:00,
2013-02-06 01:22:00,23.0,23.0,30.02,NW,322,0.0,0.0,100,0.03,,,-99.99,,2013-02-06 06:22:00,
2013-02-06 01:32:00,22.0,22.0,30.02,NW,322,0.0,0.0,100,0.03,,,-99.99,,2013-02-06 06:32:00,
2013-02-06 01:42:00,22.0,22.0,30.02,NW,322,0.0,0.0,100,0.03,,,-99.99,,2013-02-06 06:42:00,
2013-02-06 01:52:00,22.0,22.0,30.02,NW,322,0.0,0.0,100,0.03,,,-99.99,,2013-02-06 06:52:00,
2013-02-06 02:02:00,21.0,21.0,30.03,NW,322,0.0,0.0,100,0.03,,,-99.99,,2013-02-06 07:02:00,
2013-02-06 02:11:00,21.0,21.0,30.03,NW,322,0.0,0.0,100,0.03,,,-99.99,,2013-02-06 07:11:00,
2013-02-06 02:22:00,20.0,20.0,30.04,NW,322,0.0,0.0,100,0.03,,,-99.99,,2013-02-06 07:22:00,
2013-02-06 02:32:00,19.0,19.0,30.05,NW,322,0.0,0.0,100,0.03,,,-99.99,,2013-02-06 07:32:00,
2013-02-06 02:42:00,19.0,19.0,30.05,NW,322,0.0,0.0,100,0.03,,,-99.99,,2013-02-06 07:42:00,
2013-02-06 02:52:00,18.0,18.0,30.05,NW,322,0.0,0.0,100,0.03,,,-99.99,,2013-02-06 07:52:00,
2013-02-06 03:01:00,18.0,18.0,30.05,NW,322,0.0,0.0,100,0.03,,,-99.99,,2013-02-06 08:01:00,
2013-02-06 03:11:00,18.0,18.0,30.05,NW,322,0.0,0.0,100,0.03,,,-99.99,,2013-02-06 08:11:00,
2013-02-06 03:21:00,17.0,17.0,30.06,NW,322,0.0,0.0,100,0.03,,,-99.99,,2013-02-06 08:21:00,
2013-02-06 03:32:00,15.0,15.0,30.06,NW,322,0.0,0.0,100,0.03,,,-99.99,,2013-02-06 08:32:00,
2013-02-06 03:42:00,15.0,15.0,30.06,NW,322,0.0,0.0,100,0.03,,,-99.99,,2013-02-06 08:42:00,
2013-02-06 03:53:00,16.0,16.0,30.06,NW,322,0.0,0.0,100,0.03,,,-99.99,,2013-02-06 08:53:00,
2013-02-06 04:02:00,15.0,15.0,30.07,NW,322,0.0,0.0,100,0.03,,,-99.99,,2013-02-06 09:02:00,
2013-02-06 04:11:00,15.0,15.0,30.07,NW,322,0.0,0.0,100,0.03,,,-99.99,,2013-02-06 09:11:00,
2013-02-06 04:22:00,16.0,16.0,30.07,NW,322,0.0,0.0,100,0.03,,,-99.99,,2013-02-06 09:22:00,
2013-02-06 04:32:00,16.0,16.0,30.09,NW,322,0.0,0.0,100,0.03,,,-99.99,,2013-02-06 09:32:00,
2013-02-06 04:42:00,16.0,16.0,30.09,NW,322,0.0,0.0,100,0.03,,,-99.99,,2013-02-06 09:42:00,
2013-02-06 04:52:00,16.0,16.0,30.09,NW,322,0.0,0.0,100,0.03,,,-99.99,,2013-02-06 09:52:00,
2013-02-06 05:01:00,17.0,17.0,30.11,NW,322,0.0,0.0,100,0.03,,,-99.99,,2013-02-06 10:01:00,
2013-02-06 05:11:00,17.0,17.0,30.11,NW,322,0.0,0.0,100,0.03,,,-99.99,,2013-02-06 10:11:00,
2013-02-06 05:22:00,16.0,16.0,30.11,NNE,31,5.0,0.0,100,0.03,,,-99.99,,2013-02-06 10:22:00,
2013-02-06 05:32:00,16.0,16.0,30.11,NNE,25,0.0,0.0,100,0.03,,,-99.99,,2013-02-06 10:32:00,
2013-02-06 05:42:00,16.0,16.0,30.11,NNE,25,0.0,0.0,100,0.03,,,-99.99,,2013-02-06 10:42:00,
2013-02-06 05:52:00,16.0,16.0,30.11,NNE,25,0.0,0.0,100,0.03,,,-99.99,,2013-02-06 10:52:00,
2013-02-06 06:01:00,16.0,16.0,30.12,NNE,25,0.0,0.0,100,0.03,,,-99.99,,2013-02-06 11:01:00,
2013-02-06 06:11:00,16.0,16.0,30.12,NNE,25,0.0,0.0,100,0.03,,,-99.99,,2013-02-06 11:11:00,
2013-02-06 06:22:00,15.0,15.0,30.13,NNE,25,0.0,0.0,100,0.03,,,-99.99,,2013-02-06 11:22:00,
2013-02-06 06:32:00,15.0,15.0,30.13,NNE,25,0.0,0.0,100,0.03,,,-99.99,,2013-02-06 11:32:00,
2013-02-06 06:42:00,15.0,15.0,30.13,NNE,25,0.0,0.0,100,0.03,,,-99.99,,2013-02-06 11:42:00,
2013-02-06 06:53:00,14.0,14.0,30.14,NNE,25,0.0,0.0,100,0.03,,,-99.99,,2013-02-06 11:53:00,
2013-02-06 07:02:00,13.0,13.0,30.13,NE,42,3.0,0.0,100,0.03,,,-99.99,,2013-02-06 12:02:00,
2013-02-06 07:12:00,13.0,13.0,30.13,NE,42,3.0,0.0,100,0.03,,,-99.99,,2013-02-06 12:12:00,
2013-02-06 07:22:00,11.0,11.0,30.15,NE,49,0.0,0.0,100,0.03,,,-99.99,,2013-02-06 12:22:00,
2013-02-06 07:32:00,11.0,11.0,30.15,NE,49,0.0,0.0,100,0.03,,,-99.99,,2013-02-06 12:32:00,
2013-02-06 07:42:00,11.0,11.0,30.15,NE,49,0.0,0.0,100,0.03,,,-99.99,,2013-02-06 12:42:00,
2013-02-06 07:52:00,11.0,11.0,30.15,NE,49,0.0,0.0,100,0.03,,,-99.99,,2013-02-06 12:52:00,
2013-02-06 08:02:00,10.0,10.0,30.17,NE,49,0.0,0.0,100,0.03,,,-99.99,,2013-02-06 13:02:00,
2013-02-06 08:12:00,10.0,10.0,30.17,NE,49,0.0,0.0,100,0.03,,,-99.99,,2013-02-06 13:12:00,
2013-02-06 08:22:00,10.0,10.0,30.18,NE,49,0.0,0.0,100,0.03,,,-99.99,,2013-02-06 13:22:00,
2013-02-06 08:32:00,10.0,10.0,30.18,NE,49,0.0,0.0,100,0.03,,,-99.99,,2013-02-06 13:32:00,
2013-02-06 08:42:00,10.0,10.0,30.18,NE,49,0.0,0.0,100,0.03,,,-99.99,,2013-02-06 13:42:00,
2013-02-06 08:52:00,10.0,10.0,30.18,NE,49,0.0,0.0,100,0.03,,,-99.99,,2013-02-06 13:52:00,
2013-02-06 09:02:00,11.0,11.0,30.18,NE,49,0.0,0.0,100,0.03,,,-99.99,,2013-02-06 14:02:00,
2013-02-06 09:11:00,11.0,11.0,30.18,NE,49,0.0,0.0,100,0.03,,,-99.99,,2013-02-06 14:11:00,
2013-02-06 09:22:00,12.0,12.0,30.18,NE,49,0.0,0.0,100,0.03,,,-99.99,,2013-02-06 14:22:00,
2013-02-06 09:32:00,13.0,13.0,30.19,NE,49,0.0,0.0,100,0.03,,,-99.99,,2013-02-06 14:32:00,
2013-02-06 09:42:00,13.0,13.0,30.19,NE,49,0.0,0.0,100,0.03,,,-99.99,,2013-02-06 14:42:00,
2013-02-06 09:52:00,15.0,15.0,30.20,NE,49,0.0,0.0,100,0.03,,,-99.99,,2013-02-06 14:52:00,
2013-02-06 10:02:00,16.0,16.0,30.20,NE,49,0.0,0.0,100,0.03,,,-99.99,,2013-02-06 15:02:00,
2013-02-06 10:11:00,16.0,16.0,30.20,NE,49,0.0,0.0,100,0.03,,,-99.99,,2013-02-06 15:11:00,
2013-02-06 10:21:00,17.0,17.0,30.21,NE,49,0.0,0.0,100,0.03,,,-99.99,,2013-02-06 15:21:00,
2013-02-06 10:32:00,18.0,18.0,30.22,NE,49,0.0,0.0,100,0.03,,,-99.99,,2013-02-06 15:32:00,
2013-02-06 10:42:00,18.0,18.0,30.22,NE,49,0.0,0.0,100,0.03,,,-99.99,,2013-02-06 15:42:00,
2013-02-06 10:52:00,18.0,18.0,30.22,NE,49,0.0,0.0,100,0.03,,,-99.99,,2013-02-06 15:52:00,
2013-02-06 11:01:00,21.0,21.0,30.21,South,177,6.0,0.0,100,0.03,,,-99.99,,2013-02-06 16:01:00,
2013-02-06 11:11:00,21.0,21.0,30.21,South,177,6.0,0.0,100,0.03,,,-99.99,,2013-02-06 16:11:00,
2013-02-06 11:22:00,22.0,22.0,30.22,South,176,8.0,0.0,100,0.03,,,-99.99,,2013-02-06 16:22:00,
2013-02-06 11:32:00,23.0,23.0,30.22,SSW,203,7.0,0.0,100,0.03,,,-99.99,,2013-02-06 16:32:00,
2013-02-06 11:42:00,23.0,23.0,30.22,SSW,203,7.0,0.0,100,0.03,,,-99.99,,2013-02-06 16:42:00,
2013-02-06 11:52:00,24.0,24.0,30.22,SSW,203,7.0,0.0,100,0.03,,,-99.99,,2013-02-06 16:52:00,
2013-02-06 12:02:00,25.0,25.0,30.23,South,186,7.0,0.0,100,0.03,,,-99.99,,2013-02-06 17:02:00,
2013-02-06 12:22:00,26.0,26.0,30.23,South,179,6.0,0.0,99,0.03,,,-99.99,,2013-02-06 17:22:00,
2013-02-06 12:32:00,26.0,25.0,30.24,South,191,8.0,0.0,94,0.03,,,-99.99,,2013-02-06 17:32:00,
2013-02-06 12:42:00,26.0,25.0,30.24,South,191,8.0,0.0,94,0.03,,,-99.99,,2013-02-06 17:42:00,
2013-02-06 12:52:00,27.0,25.0,30.23,South,188,7.0,0.0,92,0.03,,,-99.99,,2013-02-06 17:52:00,
2013-02-06 13:02:00,27.0,25.0,30.23,South,188,7.0,0.0,92,0.03,,,-99.99,,2013-02-06 18:02:00,
2013-02-06 13:12:00,27.0,25.0,30.23,South,188,7.0,0.0,92,0.03,,,-99.99,,2013-02-06 18:12:00,
2013-02-06 13:23:00,28.0,24.0,30.22,South,188,8.0,0.0,85,0.03,,,-99.99,,2013-02-06 18:23:00,
2013-02-06 13:33:00,28.0,24.0,30.21,SSW,204,7.0,0.0,85,0.03,,,-99.99,,2013-02-06 18:33:00,
2013-02-06 13:42:00,28.0,24.0,30.21,SSW,204,7.0,0.0,85,0.03,,,-99.99,,2013-02-06 18:42:00,
2013-02-06 13:52:00,29.0,25.0,30.21,SSW,204,5.0,0.0,85,0.03,,,-99.99,,2013-02-06 18:52:00,
2013-02-06 14:02:00,29.0,24.0,30.20,SSW,201,10.0,0.0,82,0.03,,,-99.99,,2013-02-06 19:02:00,
2013-02-06 14:11:00,29.0,24.0,30.20,SSW,201,10.0,0.0,82,0.03,,,-99.99,,2013-02-06 19:11:00,
2013-02-06 14:22:00,29.0,24.0,30.21,SSW,197,9.0,0.0,82,0.03,,,-99.99,,2013-02-06 19:22:00,
2013-02-06 14:32:00,29.0,24.0,30.21,SSW,197,9.0,0.0,82,0.03,,,-99.99,,2013-02-06 19:32:00,
2013-02-06 14:42:00,29.0,24.0,30.21,SSW,197,9.0,0.0,82,0.03,,,-99.99,,2013-02-06 19:42:00,
2013-02-06 14:52:00,30.0,24.0,30.19,SSW,212,10.0,0.0,79,0.03,,,-99.99,,2013-02-06 19:52:00,
2013-02-06 15:01:00,30.0,25.0,30.18,SSW,195,8.0,0.0,81,0.03,,,-99.99,,2013-02-06 20:01:00,
2013-02-06 15:11:00,30.0,25.0,30.18,SSW,195,8.0,0.0,81,0.03,,,-99.99,,2013-02-06 20:11:00,
2013-02-06 15:21:00,30.0,25.0,30.18,SSW,195,8.0,0.0,81,0.03,,,-99.99,,2013-02-06 20:21:00,
2013-02-06 15:32:00,31.0,26.0,30.18,SSW,212,6.0,0.0,81,0.03,,,-99.99,,2013-02-06 20:32:00,
2013-02-06 15:42:00,31.0,26.0,30.18,SSW,212,6.0,0.0,81,0.03,,,-99.99,,2013-02-06 20:42:00,
2013-02-06 15:52:00,31.0,26.0,30.19,SSW,205,9.0,0.0,80,0.03,,,-99.99,,2013-02-06 20:52:00,
2013-02-06 16:02:00,31.0,26.0,30.19,SSW,205,9.0,0.0,80,0.03,,,-99.99,,2013-02-06 21:02:00,
2013-02-06 16:11:00,31.0,26.0,30.19,SSW,205,9.0,0.0,80,0.03,,,-99.99,,2013-02-06 21:11:00,
2013-02-06 16:21:00,31.0,26.0,30.19,SSW,205,9.0,0.0,80,0.03,,,-99.99,,2013-02-06 21:21:00,
2013-02-06 17:01:00,31.0,26.0,30.20,SSW,207,6.0,0.0,82,0.03,,,-99.99,,2013-02-06 22:01:00,
2013-02-06 17:11:00,31.0,26.0,30.20,SSW,207,6.0,0.0,82,0.03,,,-99.99,,2013-02-06 22:11:00,
2013-02-06 17:22:00,31.0,26.0,30.20,SSW,207,6.0,0.0,82,0.03,,,-99.99,,2013-02-06 22:22:00,
2013-02-06 17:32:00,30.0,25.0,30.19,SSW,203,6.0,0.0,83,0.03,,,-99.99,,2013-02-06 22:32:00,
2013-02-06 17:42:00,30.0,25.0,30.19,SSW,203,6.0,0.0,83,0.03,,,-99.99,,2013-02-06 22:42:00,
2013-02-06 17:52:00,30.0,26.0,30.19,South,183,6.0,0.0,84,0.03,,,-99.99,,2013-02-06 22:52:00,
2013-02-06 18:01:00,30.0,26.0,30.19,South,184,0.0,0.0,84,0.03,,,-99.99,,2013-02-06 23:01:00,
2013-02-06 18:11:00,30.0,26.0,30.19,South,184,0.0,0.0,84,0.03,,,-99.99,,2013-02-06 23:11:00,
2013-02-06 18:21:00,30.0,26.0,30.19,South,184,0.0,0.0,84,0.03,,,-99.99,,2013-02-06 23:21:00,
2013-02-06 18:32:00,30.0,27.0,30.20,South,184,0.0,0.0,88,0.03,,,-99.99,,2013-02-06 23:32:00,
2013-02-06 18:42:00,30.0,27.0,30.20,South,184,0.0,0.0,88,0.03,,,-99.99,,2013-02-06 23:42:00,
2013-02-06 18:52:00,30.0,27.0,30.20,South,184,0.0,0.0,88,0.03,,,-99.99,,2013-02-06 23:52:00,
2013-02-06 19:02:00,29.0,26.0,30.20,South,184,0.0,0.0,88,0.03,,,-99.99,,2013-02-07 00:02:00,
2013-02-06 19:11:00,29.0,26.0,30.20,South,184,0.0,0.0,88,0.03,,,-99.99,,2013-02-07 00:11:00,
2013-02-06 19:22:00,29.0,26.0,30.20,South,184,0.0,0.0,88,0.03,,,-99.99,,2013-02-07 00:22:00,
2013-02-06 19:32:00,29.0,26.0,30.19,South,184,0.0,0.0,90,0.03,,,-99.99,,2013-02-07 00:32:00,
2013-02-06 19:42:00,29.0,26.0,30.19,South,184,0.0,0.0,90,0.03,,,-99.99,,2013-02-07 00:42:00,
2013-02-06 19:52:00,29.0,26.0,30.19,South,184,0.0,0.0,90,0.03,,,-99.99,,2013-02-07 00:52:00,
2013-02-06 20:01:00,28.0,26.0,30.19,South,184,0.0,0.0,91,0.03,,,-99.99,,2013-02-07 01:01:00,
2013-02-06 20:11:00,28.0,26.0,30.19,South,184,0.0,0.0,91,0.03,,,-99.99,,2013-02-07 01:11:00,
2013-02-06 20:21:00,29.0,27.0,30.19,South,184,0.0,0.0,91,0.03,,,-99.99,,2013-02-07 01:21:00,
2013-02-06 20:32:00,29.0,27.0,30.19,South,184,0.0,0.0,91,0.03,,,-99.99,,2013-02-07 01:32:00,
2013-02-06 20:42:00,29.0,27.0,30.19,South,184,0.0,0.0,91,0.03,,,-99.99,,2013-02-07 01:42:00,
2013-02-06 20:52:00,29.0,27.0,30.18,South,184,0.0,0.0,91,0.03,,,-99.99,,2013-02-07 01:52:00,
2013-02-06 21:01:00,28.0,26.0,30.17,South,184,0.0,0.0,92,0.03,,,-99.99,,2013-02-07 02:01:00,
2013-02-06 21:12:00,28.0,26.0,30.17,South,184,0.0,0.0,92,0.03,,,-99.99,,2013-02-07 02:12:00,
2013-02-06 21:21:00,29.0,27.0,30.16,South,184,0.0,0.0,92,0.03,,,-99.99,,2013-02-07 02:21:00,
2013-02-06 21:32:00,29.0,27.0,30.17,SE,145,5.0,0.0,91,0.03,,,-99.99,,2013-02-07 02:32:00,
2013-02-06 21:42:00,29.0,27.0,30.17,SE,145,5.0,0.0,91,0.03,,,-99.99,,2013-02-07 02:42:00,
2013-02-06 21:52:00,29.0,27.0,30.17,SE,145,5.0,0.0,91,0.03,,,-99.99,,2013-02-07 02:52:00,
2013-02-06 22:02:00,29.0,26.0,30.19,South,177,6.0,0.0,90,0.03,,,-99.99,,2013-02-07 03:02:00,
2013-02-06 22:11:00,29.0,26.0,30.19,South,177,6.0,0.0,90,0.03,,,-99.99,,2013-02-07 03:11:00,
2013-02-06 22:21:00,29.0,26.0,30.18,South,169,6.0,0.0,88,0.03,,,-99.99,,2013-02-07 03:21:00,
2013-02-06 22:32:00,29.0,26.0,30.18,South,173,5.0,0.0,88,0.03,,,-99.99,,2013-02-07 03:32:00,
2013-02-06 22:42:00,29.0,26.0,30.18,South,173,5.0,0.0,88,0.03,,,-99.99,,2013-02-07 03:42:00,
2013-02-06 22:52:00,29.0,26.0,30.17,SSE,165,6.0,0.0,88,0.03,,,-99.99,,2013-02-07 03:52:00,
2013-02-06 23:01:00,29.0,26.0,30.17,SSE,159,7.0,0.0,88,0.03,,,-99.99,,2013-02-07 04:01:00,
2013-02-06 23:11:00,29.0,26.0,30.17,SSE,159,7.0,0.0,88,0.03,,,-99.99,,2013-02-07 04:11:00,
2013-02-06 23:22:00,29.0,26.0,30.17,SSE,153,6.0,0.0,88,0.03,,,-99.99,,2013-02-07 04:22:00,
2013-02-06 23:32:00,29.0,26.0,30.18,South,172,7.0,0.0,88,0.03,,,-99.99,,2013-02-07 04:32:00,
2013-02-06 23:42:00,29.0,26.0,30.18,South,172,7.0,0.0,88,0.03,,,-99.99,,2013-02-07 04:42:00,
2013-02-06 23:53:00,29.0,26.0,30.16,South,184,6.0,0.0,88,0.03,,,-99.99,,2013-02-07 04:53:00,